createdAt,value
2022-11-09T00:00:17.981Z,0.00
2022-11-09T00:01:18.049Z,0.00
2022-11-09T00:02:17.943Z,0.00
2022-11-09T00:03:18.346Z,0.00
2022-11-09T00:04:17.930Z,0.00
2022-11-09T00:05:17.940Z,0.00
2022-11-09T00:06:17.902Z,0.00
2022-11-09T00:07:18.075Z,0.00
2022-11-09T00:08:17.904Z,0.00
2022-11-09T00:09:17.939Z,0.00
2022-11-09T00:10:17.903Z,0.00
2022-11-09T00:11:17.864Z,0.00
2022-11-09T00:12:17.841Z,0.00
2022-11-09T00:13:18.199Z,0.00
2022-11-09T00:14:17.865Z,0.00
2022-11-09T00:15:17.817Z,0.00
2022-11-09T00:16:17.806Z,0.00
2022-11-09T00:17:17.786Z,0.00
2022-11-09T00:18:17.782Z,0.00
2022-11-09T00:19:17.785Z,0.00
2022-11-09T00:20:17.785Z,0.00
2022-11-09T00:21:17.746Z,0.00
2022-11-09T00:22:17.736Z,0.00
2022-11-09T00:23:18.060Z,0.00
2022-11-09T00:24:17.717Z,0.00
2022-11-09T00:25:17.722Z,0.00
2022-11-09T00:26:17.687Z,0.00
2022-11-09T00:27:17.985Z,0.00
2022-11-09T00:28:17.688Z,0.00
2022-11-09T00:29:17.669Z,0.00
2022-11-09T00:30:17.677Z,0.00
2022-11-09T00:31:17.641Z,0.00
2022-11-09T00:32:17.629Z,0.00
2022-11-09T00:33:17.978Z,0.00
2022-11-09T00:34:17.590Z,0.00
2022-11-09T00:35:17.619Z,0.00
2022-11-09T00:36:17.583Z,0.00
2022-11-09T00:37:17.590Z,0.00
2022-11-09T00:38:17.552Z,0.00
2022-11-09T00:39:17.542Z,0.00
2022-11-09T00:40:17.542Z,0.00
2022-11-09T00:41:17.542Z,0.00
2022-11-09T00:42:17.506Z,0.00
2022-11-09T00:43:17.932Z,0.00
2022-11-09T00:44:17.506Z,0.00
2022-11-09T00:45:17.499Z,0.00
2022-11-09T00:46:17.462Z,0.00
2022-11-09T00:47:17.466Z,0.00
2022-11-09T00:48:17.445Z,0.00
2022-11-09T00:49:17.444Z,0.00
2022-11-09T00:50:17.434Z,0.00
2022-11-09T00:51:17.426Z,0.00
2022-11-09T00:52:17.415Z,0.00
2022-11-09T00:53:17.663Z,0.00
2022-11-09T00:54:17.386Z,0.00
2022-11-09T00:55:17.397Z,0.00
2022-11-09T00:56:17.376Z,0.00
2022-11-09T00:57:17.347Z,0.00
2022-11-09T00:58:17.355Z,0.00
2022-11-09T00:59:17.341Z,0.00
2022-11-09T01:00:17.328Z,0.00
2022-11-09T01:01:17.417Z,0.00
2022-11-09T01:02:17.297Z,0.00
2022-11-09T01:03:17.619Z,0.00
2022-11-09T01:04:17.278Z,0.00
2022-11-09T01:05:17.302Z,0.00
2022-11-09T01:06:17.250Z,0.00
2022-11-09T01:07:17.307Z,0.00
2022-11-09T01:08:17.239Z,0.00
2022-11-09T01:09:17.219Z,0.00
2022-11-09T01:10:17.229Z,0.00
2022-11-09T01:11:17.209Z,0.00
2022-11-09T01:12:17.190Z,0.00
2022-11-09T01:13:17.673Z,0.00
2022-11-09T01:14:17.172Z,0.00
2022-11-09T01:15:17.171Z,0.00
2022-11-09T01:16:17.140Z,0.00
2022-11-09T01:17:17.151Z,0.00
2022-11-09T01:18:17.142Z,0.00
2022-11-09T01:19:17.130Z,0.00
2022-11-09T01:20:17.134Z,0.00
2022-11-09T01:21:17.102Z,0.00
2022-11-09T01:22:17.091Z,0.00
2022-11-09T01:23:17.355Z,0.00
2022-11-09T01:24:17.061Z,0.00
2022-11-09T01:25:17.074Z,0.00
2022-11-09T01:26:17.051Z,0.00
2022-11-09T01:27:17.034Z,0.00
2022-11-09T01:28:17.015Z,0.00
2022-11-09T01:29:17.017Z,0.00
2022-11-09T01:30:17.015Z,0.00
2022-11-09T01:31:16.990Z,0.00
2022-11-09T01:32:16.986Z,0.00
2022-11-09T01:33:17.290Z,0.00
2022-11-09T01:34:16.958Z,0.00
2022-11-09T01:35:16.965Z,0.00
2022-11-09T01:36:16.927Z,0.00
2022-11-09T01:37:16.957Z,0.00
2022-11-09T01:38:16.917Z,0.00
2022-11-09T01:39:16.907Z,0.00
2022-11-09T01:40:17.008Z,0.00
2022-11-09T01:41:16.907Z,0.00
2022-11-09T01:42:16.868Z,0.00
2022-11-09T01:43:17.244Z,0.00
2022-11-09T01:44:16.915Z,0.00
2022-11-09T01:45:16.859Z,0.00
2022-11-09T01:46:16.830Z,0.00
2022-11-09T01:47:16.833Z,0.00
2022-11-09T01:48:16.809Z,0.00
2022-11-09T01:49:16.820Z,0.00
2022-11-09T01:50:16.828Z,0.00
2022-11-09T01:51:16.782Z,0.00
2022-11-09T01:52:16.772Z,0.00
2022-11-09T01:53:17.305Z,0.00
2022-11-09T01:54:16.781Z,0.00
2022-11-09T01:55:16.777Z,0.00
2022-11-09T01:56:16.896Z,0.00
2022-11-09T01:57:16.725Z,0.00
2022-11-09T01:58:16.707Z,0.00
2022-11-09T01:59:16.691Z,0.00
2022-11-09T02:00:16.693Z,0.00
2022-11-09T02:01:16.757Z,0.00
2022-11-09T02:02:16.661Z,0.00
2022-11-09T02:03:16.797Z,0.00
2022-11-09T02:04:16.645Z,0.00
2022-11-09T02:05:16.644Z,0.00
2022-11-09T02:06:16.615Z,0.00
2022-11-09T02:07:16.701Z,0.00
2022-11-09T02:08:16.596Z,0.00
2022-11-09T02:09:16.587Z,0.00
2022-11-09T02:10:16.583Z,0.00
2022-11-09T02:11:16.565Z,0.00
2022-11-09T02:12:16.549Z,0.00
2022-11-09T02:13:16.822Z,0.00
2022-11-09T02:14:16.546Z,0.00
2022-11-09T02:15:16.536Z,0.00
2022-11-09T02:16:16.516Z,0.00
2022-11-09T02:17:16.507Z,0.00
2022-11-09T02:18:16.496Z,0.00
2022-11-09T02:19:16.496Z,0.00
2022-11-09T02:20:16.532Z,0.00
2022-11-09T02:21:16.458Z,0.00
2022-11-09T02:22:16.438Z,0.00
2022-11-09T02:23:16.779Z,0.00
2022-11-09T02:24:16.427Z,0.00
2022-11-09T02:25:16.436Z,0.00
2022-11-09T02:26:16.402Z,0.00
2022-11-09T02:27:16.391Z,0.00
2022-11-09T02:28:16.418Z,0.00
2022-11-09T02:29:16.389Z,0.00
2022-11-09T02:30:16.365Z,0.00
2022-11-09T02:31:16.352Z,0.00
2022-11-09T02:32:16.340Z,0.00
2022-11-09T02:33:16.606Z,0.00
2022-11-09T02:34:16.310Z,0.00
2022-11-09T02:35:16.319Z,0.00
2022-11-09T02:36:16.294Z,0.00
2022-11-09T02:37:16.290Z,0.00
2022-11-09T02:38:16.284Z,0.00
2022-11-09T02:39:16.265Z,0.00
2022-11-09T02:40:16.265Z,0.00
2022-11-09T02:41:16.242Z,0.00
2022-11-09T02:42:21.230Z,0.00
2022-11-09T02:43:17.558Z,0.00
2022-11-09T02:44:16.221Z,0.00
2022-11-09T02:45:17.176Z,0.00
2022-11-09T02:46:16.264Z,0.00
2022-11-09T02:47:16.185Z,0.00
2022-11-09T02:48:16.217Z,0.00
2022-11-09T02:49:16.161Z,0.00
2022-11-09T02:50:16.177Z,0.00
2022-11-09T02:51:16.136Z,0.00
2022-11-09T02:52:16.127Z,0.00
2022-11-09T02:53:16.198Z,0.00
2022-11-09T02:54:16.185Z,0.00
2022-11-09T02:55:16.115Z,0.00
2022-11-09T02:56:16.386Z,0.00
2022-11-09T02:57:16.066Z,0.00
2022-11-09T02:58:16.068Z,0.00
2022-11-09T02:59:16.048Z,0.00
2022-11-09T03:00:16.065Z,0.00
2022-11-09T03:01:16.124Z,0.00
2022-11-09T03:02:16.045Z,0.00
2022-11-09T03:03:16.052Z,0.00
2022-11-09T03:04:16.053Z,0.00
2022-11-09T03:05:16.008Z,0.00
2022-11-09T03:06:15.979Z,0.00
2022-11-09T03:07:16.063Z,0.00
2022-11-09T03:08:16.037Z,0.00
2022-11-09T03:09:15.958Z,0.00
2022-11-09T03:10:16.034Z,0.00
2022-11-09T03:11:15.929Z,0.00
2022-11-09T03:12:15.998Z,0.00
2022-11-09T03:13:15.941Z,0.00
2022-11-09T03:14:15.900Z,0.00
2022-11-09T03:15:15.890Z,0.00
2022-11-09T03:16:15.880Z,0.00
2022-11-09T03:17:15.860Z,0.00
2022-11-09T03:18:15.871Z,0.00
2022-11-09T03:19:15.832Z,0.00
2022-11-09T03:20:15.931Z,0.00
2022-11-09T03:21:15.813Z,0.00
2022-11-09T03:22:15.815Z,0.00
2022-11-09T03:23:15.838Z,0.00
2022-11-09T03:24:15.822Z,0.00
2022-11-09T03:25:15.803Z,0.00
2022-11-09T03:26:15.772Z,0.00
2022-11-09T03:27:15.764Z,0.00
2022-11-09T03:28:15.743Z,0.00
2022-11-09T03:29:15.745Z,0.00
2022-11-09T03:30:15.737Z,0.00
2022-11-09T03:31:15.721Z,0.00
2022-11-09T03:32:15.695Z,0.00
2022-11-09T03:33:15.804Z,0.00
2022-11-09T03:34:15.695Z,0.00
2022-11-09T03:35:15.697Z,0.00
2022-11-09T03:36:15.656Z,0.00
2022-11-09T03:37:15.694Z,0.00
2022-11-09T03:38:15.635Z,0.00
2022-11-09T03:39:15.636Z,0.00
2022-11-09T03:40:15.626Z,0.00
2022-11-09T03:41:15.614Z,0.00
2022-11-09T03:42:15.598Z,0.00
2022-11-09T03:43:15.628Z,0.00
2022-11-09T03:44:15.606Z,0.00
2022-11-09T03:45:15.576Z,0.00
2022-11-09T03:46:15.574Z,0.00
2022-11-09T03:47:15.562Z,0.00
2022-11-09T03:48:15.559Z,0.00
2022-11-09T03:49:15.530Z,0.00
2022-11-09T03:50:15.568Z,0.00
2022-11-09T03:51:15.502Z,0.00
2022-11-09T03:52:15.547Z,0.00
2022-11-09T03:53:15.493Z,0.00
2022-11-09T03:54:15.470Z,0.00
2022-11-09T03:55:15.472Z,0.00
2022-11-09T03:56:15.478Z,0.00
2022-11-09T03:57:15.460Z,0.00
2022-11-09T03:58:15.463Z,0.00
2022-11-09T03:59:15.426Z,0.00
2022-11-09T04:00:15.466Z,0.00
2022-11-09T04:01:15.439Z,0.00
2022-11-09T04:02:15.462Z,0.00
2022-11-09T04:03:15.372Z,0.00
2022-11-09T04:04:15.364Z,0.00
2022-11-09T04:05:15.363Z,0.00
2022-11-09T04:06:15.341Z,0.00
2022-11-09T04:07:15.420Z,0.00
2022-11-09T04:08:15.427Z,0.00
2022-11-09T04:09:15.305Z,0.00
2022-11-09T04:10:15.363Z,0.00
2022-11-09T04:11:15.295Z,0.00
2022-11-09T04:12:15.283Z,0.00
2022-11-09T04:13:15.276Z,0.00
2022-11-09T04:14:15.315Z,0.00
2022-11-09T04:15:15.285Z,0.00
2022-11-09T04:16:15.356Z,0.00
2022-11-09T04:17:15.247Z,0.00
2022-11-09T04:18:15.216Z,0.00
2022-11-09T04:19:15.216Z,0.00
2022-11-09T04:20:15.226Z,0.00
2022-11-09T04:21:17.182Z,0.00
2022-11-09T04:22:16.166Z,0.00
2022-11-09T04:23:15.159Z,0.00
2022-11-09T04:24:15.289Z,0.00
2022-11-09T04:25:15.157Z,0.00
2022-11-09T04:26:15.272Z,0.00
2022-11-09T04:27:15.107Z,0.00
2022-11-09T04:28:15.109Z,0.00
2022-11-09T04:29:15.092Z,0.00
2022-11-09T04:30:15.090Z,0.00
2022-11-09T04:31:15.062Z,0.00
2022-11-09T04:32:15.231Z,0.00
2022-11-09T04:33:15.190Z,0.00
2022-11-09T04:34:15.101Z,0.00
2022-11-09T04:35:15.039Z,0.00
2022-11-09T04:36:15.016Z,0.00
2022-11-09T04:37:15.024Z,0.00
2022-11-09T04:38:14.992Z,0.00
2022-11-09T04:39:14.981Z,0.00
2022-11-09T04:40:15.034Z,0.00
2022-11-09T04:41:14.952Z,0.00
2022-11-09T04:42:14.962Z,0.00
2022-11-09T04:43:14.932Z,0.00
2022-11-09T04:44:14.942Z,0.00
2022-11-09T04:45:14.912Z,0.00
2022-11-09T04:46:14.945Z,0.00
2022-11-09T04:47:14.884Z,0.00
2022-11-09T04:48:14.903Z,0.00
2022-11-09T04:49:14.864Z,0.00
2022-11-09T04:50:14.864Z,0.00
2022-11-09T04:51:14.848Z,0.00
2022-11-09T04:52:14.867Z,0.00
2022-11-09T04:53:14.825Z,0.00
2022-11-09T04:54:14.817Z,0.00
2022-11-09T04:55:14.814Z,0.00
2022-11-09T04:56:14.867Z,0.00
2022-11-09T04:57:14.768Z,0.00
2022-11-09T04:58:14.770Z,0.00
2022-11-09T04:59:14.778Z,0.00
2022-11-09T05:00:14.789Z,0.00
2022-11-09T05:01:14.745Z,0.00
2022-11-09T05:02:14.719Z,0.00
2022-11-09T05:03:14.854Z,0.00
2022-11-09T05:04:14.829Z,0.00
2022-11-09T05:05:14.681Z,0.00
2022-11-09T05:06:14.682Z,0.00
2022-11-09T05:07:14.705Z,0.00
2022-11-09T05:08:14.658Z,0.00
2022-11-09T05:09:14.660Z,0.00
2022-11-09T05:10:14.651Z,0.00
2022-11-09T05:11:14.652Z,0.00
2022-11-09T05:12:14.623Z,0.00
2022-11-09T05:13:14.616Z,0.00
2022-11-09T05:14:14.611Z,0.00
2022-11-09T05:15:14.572Z,0.00
2022-11-09T05:16:14.609Z,0.00
2022-11-09T05:17:14.566Z,0.00
2022-11-09T05:18:14.581Z,0.00
2022-11-09T05:19:14.531Z,0.00
2022-11-09T05:20:14.576Z,0.00
2022-11-09T05:21:14.524Z,0.00
2022-11-09T05:22:14.523Z,0.00
2022-11-09T05:23:14.488Z,0.00
2022-11-09T05:24:14.473Z,0.00
2022-11-09T05:25:14.472Z,0.00
2022-11-09T05:26:14.453Z,0.00
2022-11-09T05:27:14.436Z,0.00
2022-11-09T05:28:14.444Z,0.00
2022-11-09T05:29:14.425Z,0.00
2022-11-09T05:30:14.469Z,0.00
2022-11-09T05:31:14.434Z,0.00
2022-11-09T05:32:14.396Z,0.00
2022-11-09T05:33:14.368Z,0.00
2022-11-09T05:34:14.378Z,0.00
2022-11-09T05:35:14.376Z,0.00
2022-11-09T05:36:14.354Z,0.00
2022-11-09T05:37:14.327Z,0.00
2022-11-09T05:38:14.328Z,0.00
2022-11-09T05:39:14.307Z,0.00
2022-11-09T05:40:14.309Z,0.00
2022-11-09T05:41:14.278Z,0.00
2022-11-09T05:42:14.305Z,0.00
2022-11-09T05:43:14.258Z,0.00
2022-11-09T05:44:14.249Z,0.00
2022-11-09T05:45:41.409Z,0.00
2022-11-09T05:46:15.229Z,0.00
2022-11-09T05:47:14.219Z,0.00
2022-11-09T05:48:14.208Z,0.00
2022-11-09T05:49:14.201Z,0.00
2022-11-09T05:50:14.318Z,0.00
2022-11-09T05:51:14.170Z,0.00
2022-11-09T05:52:14.180Z,0.00
2022-11-09T05:53:14.154Z,0.00
2022-11-09T05:54:14.143Z,0.00
2022-11-09T05:55:14.141Z,0.00
2022-11-09T05:56:14.158Z,0.00
2022-11-09T05:57:14.115Z,0.00
2022-11-09T05:58:14.115Z,0.00
2022-11-09T05:59:14.094Z,0.00
2022-11-09T06:00:14.093Z,0.00
2022-11-09T06:01:14.070Z,0.00
2022-11-09T06:02:14.118Z,0.00
2022-11-09T06:03:14.045Z,0.00
2022-11-09T06:04:14.043Z,0.00
2022-11-09T06:05:14.036Z,0.00
2022-11-09T06:06:14.034Z,0.00
2022-11-09T06:07:14.066Z,0.00
2022-11-09T06:08:14.082Z,0.00
2022-11-09T06:09:13.974Z,0.00
2022-11-09T06:10:14.018Z,0.00
2022-11-09T06:11:21.430Z,0.00
2022-11-09T06:12:14.955Z,0.00
2022-11-09T06:13:13.939Z,0.00
2022-11-09T06:14:13.956Z,0.00
2022-11-09T06:15:13.930Z,0.00
2022-11-09T06:16:13.906Z,0.00
2022-11-09T06:17:13.895Z,0.00
2022-11-09T06:18:13.888Z,0.00
2022-11-09T06:19:13.878Z,0.00
2022-11-09T06:20:13.888Z,0.00
2022-11-09T06:21:13.847Z,0.00
2022-11-09T06:22:13.848Z,0.00
2022-11-09T06:23:13.831Z,0.00
2022-11-09T06:24:13.880Z,0.00
2022-11-09T06:25:13.828Z,0.00
2022-11-09T06:26:13.813Z,0.00
2022-11-09T06:27:13.802Z,0.00
2022-11-09T06:28:13.804Z,5.62
2022-11-09T06:29:13.773Z,5.62
2022-11-09T06:30:13.801Z,5.62
2022-11-09T06:31:13.751Z,5.62
2022-11-09T06:32:13.738Z,5.62
2022-11-09T06:33:13.720Z,5.62
2022-11-09T06:34:13.717Z,5.62
2022-11-09T06:35:13.723Z,11.25
2022-11-09T06:36:13.727Z,11.25
2022-11-09T06:37:13.690Z,11.25
2022-11-09T06:38:13.671Z,11.25
2022-11-09T06:39:13.664Z,11.25
2022-11-09T06:40:13.711Z,16.88
2022-11-09T06:41:13.656Z,16.88
2022-11-09T06:42:13.734Z,16.88
2022-11-09T06:43:13.644Z,16.88
2022-11-09T06:44:13.619Z,22.50
2022-11-09T06:45:13.740Z,22.50
2022-11-09T06:46:13.594Z,22.50
2022-11-09T06:47:13.598Z,22.50
2022-11-09T06:48:13.604Z,28.12
2022-11-09T06:49:13.568Z,28.12
2022-11-09T06:50:13.595Z,33.75
2022-11-09T06:51:13.526Z,39.38
2022-11-09T06:52:13.525Z,39.38
2022-11-09T06:53:13.508Z,45.00
2022-11-09T06:54:13.513Z,50.62
2022-11-09T06:55:13.505Z,56.25
2022-11-09T06:56:13.519Z,61.88
2022-11-09T06:57:13.466Z,61.88
2022-11-09T06:58:13.454Z,67.50
2022-11-09T06:59:13.444Z,73.12
2022-11-09T07:00:13.458Z,73.12
2022-11-09T07:01:13.516Z,78.75
2022-11-09T07:02:13.438Z,78.75
2022-11-09T07:03:13.407Z,84.38
2022-11-09T07:04:13.417Z,90.00
2022-11-09T07:05:13.416Z,90.00
2022-11-09T07:06:13.366Z,95.62
2022-11-09T07:07:13.396Z,101.25
2022-11-09T07:08:13.349Z,101.25
2022-11-09T07:09:13.337Z,101.25
2022-11-09T07:10:13.371Z,101.25
2022-11-09T07:11:13.309Z,106.88
2022-11-09T07:12:13.328Z,106.88
2022-11-09T07:13:13.309Z,106.88
2022-11-09T07:14:13.295Z,112.50
2022-11-09T07:15:13.278Z,112.50
2022-11-09T07:16:13.271Z,118.12
2022-11-09T07:17:13.252Z,118.12
2022-11-09T07:18:13.251Z,123.75
2022-11-09T07:19:13.234Z,129.38
2022-11-09T07:20:13.221Z,129.38
2022-11-09T07:21:14.428Z,135.00
2022-11-09T07:22:13.202Z,135.00
2022-11-09T07:23:13.318Z,140.62
2022-11-09T07:24:13.218Z,140.62
2022-11-09T07:25:13.182Z,146.25
2022-11-09T07:26:13.152Z,146.25
2022-11-09T07:27:13.143Z,146.25
2022-11-09T07:28:13.130Z,151.88
2022-11-09T07:29:13.125Z,157.50
2022-11-09T07:30:13.130Z,157.50
2022-11-09T07:31:13.185Z,163.12
2022-11-09T07:32:13.096Z,168.75
2022-11-09T07:33:13.075Z,168.75
2022-11-09T07:34:13.094Z,174.38
2022-11-09T07:35:13.068Z,180.00
2022-11-09T07:36:18.226Z,180.00
2022-11-09T07:37:14.055Z,180.00
2022-11-09T07:38:13.024Z,191.25
2022-11-09T07:39:13.025Z,196.88
2022-11-09T07:40:13.065Z,208.12
2022-11-09T07:41:13.206Z,202.50
2022-11-09T07:42:12.996Z,208.12
2022-11-09T07:43:12.976Z,213.75
2022-11-09T07:44:12.968Z,219.38
2022-11-09T07:45:12.957Z,225.00
2022-11-09T07:46:13.019Z,230.62
2022-11-09T07:47:17.235Z,236.25
2022-11-09T07:48:13.909Z,236.25
2022-11-09T07:49:12.907Z,236.25
2022-11-09T07:50:12.916Z,241.88
2022-11-09T07:51:12.896Z,241.88
2022-11-09T07:52:12.889Z,247.50
2022-11-09T07:53:12.880Z,247.50
2022-11-09T07:54:12.858Z,253.12
2022-11-09T07:55:12.858Z,258.75
2022-11-09T07:56:12.837Z,258.75
2022-11-09T07:57:12.818Z,264.38
2022-11-09T07:58:13.402Z,264.38
2022-11-09T07:59:12.800Z,264.38
2022-11-09T08:00:12.789Z,270.00
2022-11-09T08:01:12.780Z,270.00
2022-11-09T08:02:12.981Z,270.00
2022-11-09T08:03:12.756Z,270.00
2022-11-09T08:04:12.740Z,270.00
2022-11-09T08:05:12.752Z,270.00
2022-11-09T08:06:18.120Z,275.62
2022-11-09T08:07:13.754Z,281.25
2022-11-09T08:08:12.768Z,286.88
2022-11-09T08:09:12.692Z,286.88
2022-11-09T08:10:12.790Z,286.88
2022-11-09T08:11:12.671Z,281.25
2022-11-09T08:12:12.653Z,286.88
2022-11-09T08:13:12.650Z,292.50
2022-11-09T08:14:12.722Z,298.12
2022-11-09T08:15:12.670Z,303.75
2022-11-09T08:16:12.713Z,303.75
2022-11-09T08:17:12.601Z,298.12
2022-11-09T08:18:12.581Z,292.50
2022-11-09T08:19:12.588Z,286.88
2022-11-09T08:20:12.613Z,281.25
2022-11-09T08:21:12.690Z,275.62
2022-11-09T08:22:12.613Z,270.00
2022-11-09T08:23:12.532Z,270.00
2022-11-09T08:24:12.523Z,270.00
2022-11-09T08:25:12.517Z,270.00
2022-11-09T08:26:12.592Z,275.62
2022-11-09T08:27:12.483Z,281.25
2022-11-09T08:28:15.859Z,281.25
2022-11-09T08:29:12.467Z,281.25
2022-11-09T08:30:12.480Z,292.50
2022-11-09T08:31:12.570Z,292.50
2022-11-09T08:32:12.484Z,298.12
2022-11-09T08:33:12.415Z,303.75
2022-11-09T08:34:12.444Z,309.38
2022-11-09T08:35:12.416Z,309.38
2022-11-09T08:36:12.613Z,315.00
2022-11-09T08:37:12.376Z,320.62
2022-11-09T08:38:12.375Z,326.25
2022-11-09T08:39:12.352Z,326.25
2022-11-09T08:40:12.370Z,326.25
2022-11-09T08:41:13.771Z,331.88
2022-11-09T08:42:12.407Z,331.88
2022-11-09T08:43:12.318Z,337.50
2022-11-09T08:44:12.344Z,348.75
2022-11-09T08:45:12.322Z,354.38
2022-11-09T08:46:12.526Z,348.75
2022-11-09T08:47:12.260Z,337.50
2022-11-09T08:48:12.256Z,348.75
2022-11-09T08:49:12.244Z,331.88
2022-11-09T08:50:12.310Z,331.88
2022-11-09T08:51:12.531Z,343.12
2022-11-09T08:52:12.251Z,348.75
2022-11-09T08:53:12.202Z,348.75
2022-11-09T08:54:12.191Z,331.88
2022-11-09T08:55:12.239Z,343.12
2022-11-09T08:56:12.187Z,331.88
2022-11-09T08:57:12.163Z,320.62
2022-11-09T08:58:12.192Z,315.00
2022-11-09T08:59:12.141Z,303.75
2022-11-09T09:00:12.142Z,292.50
2022-11-09T09:01:16.740Z,286.88
2022-11-09T09:02:13.139Z,292.50
2022-11-09T09:03:12.112Z,298.12
2022-11-09T09:04:12.115Z,309.38
2022-11-09T09:05:12.084Z,320.62
2022-11-09T09:06:12.174Z,337.50
2022-11-09T09:07:12.068Z,343.12
2022-11-09T09:08:12.072Z,360.00
2022-11-09T09:09:12.151Z,360.00
2022-11-09T09:10:12.107Z,376.88
2022-11-09T09:11:12.031Z,399.38
2022-11-09T09:12:12.016Z,388.12
2022-11-09T09:13:11.975Z,405.00
2022-11-09T09:14:12.007Z,427.50
2022-11-09T09:15:11.986Z,455.62
2022-11-09T09:16:11.990Z,472.50
2022-11-09T09:17:11.944Z,489.38
2022-11-09T09:18:11.929Z,506.25
2022-11-09T09:19:11.919Z,517.50
2022-11-09T09:20:11.954Z,528.75
2022-11-09T09:21:11.898Z,534.38
2022-11-09T09:22:11.909Z,534.38
2022-11-09T09:23:12.020Z,545.62
2022-11-09T09:24:11.947Z,556.88
2022-11-09T09:25:11.878Z,568.12
2022-11-09T09:26:11.963Z,573.75
2022-11-09T09:27:11.842Z,573.75
2022-11-09T09:28:11.820Z,562.50
2022-11-09T09:29:11.814Z,540.00
2022-11-09T09:30:11.840Z,534.38
2022-11-09T09:31:15.730Z,517.50
2022-11-09T09:32:12.789Z,517.50
2022-11-09T09:33:11.808Z,511.88
2022-11-09T09:34:11.763Z,500.62
2022-11-09T09:35:11.864Z,495.00
2022-11-09T09:36:11.735Z,483.75
2022-11-09T09:37:11.873Z,483.75
2022-11-09T09:38:11.740Z,478.12
2022-11-09T09:39:11.865Z,489.38
2022-11-09T09:40:11.796Z,511.88
2022-11-09T09:41:11.755Z,523.12
2022-11-09T09:42:11.683Z,545.62
2022-11-09T09:43:11.761Z,562.50
2022-11-09T09:44:11.657Z,596.25
2022-11-09T09:45:11.666Z,618.75
2022-11-09T09:46:11.674Z,635.62
2022-11-09T09:47:11.630Z,646.88
2022-11-09T09:48:11.695Z,658.12
2022-11-09T09:49:11.616Z,663.75
2022-11-09T09:50:11.738Z,663.75
2022-11-09T09:51:11.590Z,669.38
2022-11-09T09:52:11.639Z,675.00
2022-11-09T09:53:23.969Z,703.12
2022-11-09T09:54:12.541Z,720.00
2022-11-09T09:55:11.553Z,736.88
2022-11-09T09:56:11.579Z,759.38
2022-11-09T09:57:11.512Z,776.25
2022-11-09T09:58:11.668Z,787.50
2022-11-09T09:59:11.502Z,804.38
2022-11-09T10:00:11.649Z,804.38
2022-11-09T10:01:11.513Z,798.75
2022-11-09T10:02:11.482Z,804.38
2022-11-09T10:03:11.484Z,978.75
2022-11-09T10:04:11.491Z,1248.75
2022-11-09T10:05:11.427Z,1108.12
2022-11-09T10:06:11.552Z,1299.38
2022-11-09T10:07:11.427Z,1552.50
2022-11-09T10:08:11.511Z,1395.00
2022-11-09T10:09:11.374Z,1051.88
2022-11-09T10:10:11.385Z,1293.75
2022-11-09T10:11:11.375Z,1057.50
2022-11-09T10:12:11.336Z,1001.25
2022-11-09T10:13:11.336Z,871.88
2022-11-09T10:14:11.376Z,815.62
2022-11-09T10:15:11.337Z,883.12
2022-11-09T10:16:11.416Z,1057.50
2022-11-09T10:17:11.297Z,1203.75
2022-11-09T10:18:11.276Z,1676.25
2022-11-09T10:19:11.268Z,1710.00
2022-11-09T10:20:11.339Z,1918.12
2022-11-09T10:21:11.239Z,2503.12
2022-11-09T10:22:11.231Z,2677.50
2022-11-09T10:23:11.227Z,2700.00
2022-11-09T10:24:11.239Z,2188.12
2022-11-09T10:25:23.574Z,2160.00
2022-11-09T10:26:15.611Z,1811.25
2022-11-09T10:27:11.220Z,2373.75
2022-11-09T10:28:13.281Z,2385.00
2022-11-09T10:29:18.200Z,2908.12
2022-11-09T10:30:12.169Z,2649.38
2022-11-09T10:31:11.172Z,2289.38
2022-11-09T10:32:11.209Z,2002.50
2022-11-09T10:33:11.127Z,1563.75
2022-11-09T10:34:11.188Z,1552.50
2022-11-09T10:35:11.133Z,1625.62
2022-11-09T10:36:11.104Z,1636.88
2022-11-09T10:37:11.075Z,1293.75
2022-11-09T10:38:11.163Z,1153.12
2022-11-09T10:39:11.072Z,1209.38
2022-11-09T10:40:11.043Z,1248.75
2022-11-09T10:41:11.046Z,1445.62
2022-11-09T10:42:11.071Z,1158.75
2022-11-09T10:43:11.016Z,1361.25
2022-11-09T10:44:16.161Z,1248.75
2022-11-09T10:45:12.032Z,1383.75
2022-11-09T10:46:11.040Z,1136.25
2022-11-09T10:47:10.971Z,888.75
2022-11-09T10:48:11.017Z,1518.75
2022-11-09T10:49:10.957Z,1023.75
2022-11-09T10:50:10.998Z,1023.75
2022-11-09T10:51:10.925Z,748.12
2022-11-09T10:52:11.006Z,720.00
2022-11-09T10:53:10.914Z,860.62
2022-11-09T10:54:10.899Z,1361.25
2022-11-09T10:55:10.884Z,1068.75
2022-11-09T10:56:10.972Z,1372.50
2022-11-09T10:57:10.862Z,950.62
2022-11-09T10:58:10.853Z,860.62
2022-11-09T10:59:10.845Z,736.88
2022-11-09T11:00:10.873Z,945.00
2022-11-09T11:01:10.865Z,765.00
2022-11-09T11:02:10.878Z,961.88
2022-11-09T11:03:11.187Z,1344.38
2022-11-09T11:04:10.823Z,1321.88
2022-11-09T11:05:10.814Z,1170.00
2022-11-09T11:06:10.775Z,1023.75
2022-11-09T11:07:10.845Z,1181.25
2022-11-09T11:08:10.748Z,1389.38
2022-11-09T11:09:10.728Z,1276.88
2022-11-09T11:10:10.781Z,1231.88
2022-11-09T11:11:32.194Z,1141.88
2022-11-09T11:12:11.730Z,1085.62
2022-11-09T11:13:10.716Z,1209.38
2022-11-09T11:14:10.668Z,1198.12
2022-11-09T11:15:10.689Z,1293.75
2022-11-09T11:16:10.670Z,1209.38
2022-11-09T11:17:10.650Z,1260.00
2022-11-09T11:18:10.662Z,1231.88
2022-11-09T11:19:10.641Z,1130.62
2022-11-09T11:20:10.680Z,1125.00
2022-11-09T11:21:13.780Z,1119.38
2022-11-09T11:22:11.635Z,1164.38
2022-11-09T11:23:10.581Z,1237.50
2022-11-09T11:24:10.582Z,1248.75
2022-11-09T11:25:10.594Z,911.25
2022-11-09T11:26:10.575Z,1164.38
2022-11-09T11:27:10.870Z,1237.50
2022-11-09T11:28:10.534Z,1237.50
2022-11-09T11:29:10.523Z,1231.88
2022-11-09T11:30:10.616Z,1203.75
2022-11-09T11:31:10.557Z,1181.25
2022-11-09T11:32:10.525Z,1147.50
2022-11-09T11:33:10.476Z,1096.88
2022-11-09T11:34:10.566Z,1164.38
2022-11-09T11:35:10.500Z,1192.50
2022-11-09T11:36:10.436Z,1226.25
2022-11-09T11:37:10.426Z,1181.25
2022-11-09T11:38:10.428Z,1141.88
2022-11-09T11:39:10.406Z,1136.25
2022-11-09T11:40:10.487Z,1141.88
2022-11-09T11:41:10.389Z,1125.00
2022-11-09T11:42:10.383Z,1181.25
2022-11-09T11:43:10.367Z,1293.75
2022-11-09T11:44:10.359Z,1417.50
2022-11-09T11:45:38.920Z,1198.12
2022-11-09T11:46:11.351Z,860.62
2022-11-09T11:47:10.320Z,871.88
2022-11-09T11:48:10.333Z,1220.62
2022-11-09T11:49:10.311Z,1316.25
2022-11-09T11:50:10.299Z,1546.88
2022-11-09T11:51:10.272Z,1496.25
2022-11-09T11:52:10.297Z,1440.00
2022-11-09T11:53:10.275Z,1338.75
2022-11-09T11:54:10.314Z,1383.75
2022-11-09T11:55:10.272Z,1327.50
2022-11-09T11:56:10.226Z,1231.88
2022-11-09T11:57:10.215Z,860.62
2022-11-09T11:58:10.208Z,776.25
2022-11-09T11:59:10.256Z,1231.88
2022-11-09T12:00:10.220Z,1293.75
2022-11-09T12:01:10.207Z,1237.50
2022-11-09T12:02:10.454Z,1288.12
2022-11-09T12:03:10.217Z,1361.25
2022-11-09T12:04:10.151Z,1344.38
2022-11-09T12:05:10.179Z,1243.12
2022-11-09T12:06:10.151Z,1186.88
2022-11-09T12:07:10.128Z,1186.88
2022-11-09T12:08:10.151Z,1175.62
2022-11-09T12:09:10.122Z,1175.62
2022-11-09T12:10:10.079Z,1136.25
2022-11-09T12:11:10.067Z,1046.25
2022-11-09T12:12:10.071Z,1018.12
2022-11-09T12:13:10.058Z,945.00
2022-11-09T12:14:10.033Z,984.38
2022-11-09T12:15:10.037Z,1215.00
2022-11-09T12:16:10.001Z,1333.12
2022-11-09T12:17:10.153Z,1344.38
2022-11-09T12:18:10.014Z,1001.25
2022-11-09T12:19:09.991Z,1507.50
2022-11-09T12:20:10.170Z,1445.62
2022-11-09T12:21:10.002Z,652.50
2022-11-09T12:22:09.963Z,641.25
2022-11-09T12:23:10.002Z,697.50
2022-11-09T12:24:09.994Z,1153.12
2022-11-09T12:25:09.986Z,1209.38
2022-11-09T12:26:14.820Z,832.50
2022-11-09T12:27:30.993Z,753.75
2022-11-09T12:28:10.938Z,855.00
2022-11-09T12:29:09.862Z,697.50
2022-11-09T12:30:09.930Z,675.00
2022-11-09T12:31:09.844Z,900.00
2022-11-09T12:32:09.859Z,1074.38
2022-11-09T12:33:09.857Z,1040.62
2022-11-09T12:34:09.921Z,1395.00
2022-11-09T12:35:09.820Z,1563.75
2022-11-09T12:36:09.843Z,1226.25
2022-11-09T12:37:09.831Z,1366.88
2022-11-09T12:38:09.768Z,1434.38
2022-11-09T12:39:09.769Z,1344.38
2022-11-09T12:40:09.777Z,1237.50
2022-11-09T12:41:09.751Z,1153.12
2022-11-09T12:42:09.751Z,1029.38
2022-11-09T12:43:09.712Z,883.12
2022-11-09T12:44:13.207Z,894.38
2022-11-09T12:45:10.703Z,793.12
2022-11-09T12:46:09.684Z,736.88
2022-11-09T12:47:09.663Z,720.00
2022-11-09T12:48:09.683Z,708.75
2022-11-09T12:49:09.659Z,725.62
2022-11-09T12:50:09.749Z,669.38